Littleton, CO (80121)

11:24 PM MDT on September 01, 2014 (GMT -0600)
Southglenn | Change Station
CLOSE
Current Station
Personal Weather Station
Location: Centennial, CO
Elevation: 5518 ft
Nearby Weather Stations

Elev 5518 ft 39.60 °N, 104.97 °W | Updated 8 seconds ago

Clear
Clear
56.7 °F
Feels Like 56.7 °F
N
0.0
Wind Variable Wind from North
Gusts 0.0 mph

Today
High -- | Low -- °F
--% Chance of Precip.
Yesterday
High -- | Low -- °F
Precip. -- in
6:28 AM 7:30 PM
Waxing Crescent, 48% visible
Pressure 29.99 in
Visibility 10.0 miles
Clouds Few 11000 ft
Few 25000 ft
Dew Point 48 °F
Humidity 72%
Rainfall 0.00 in
Snow Depth Not available.
UV 0.0 out of 12
Pollen 9.90 out of 12
Ozone Good
PM2.5 Good
Flu Activity Not available.
METAR KAPA 020453Z 15003KT 10SM FEW110 FEW250 16/08 A3015 RMK AO2 SLP153 T01610083 $

More Conditions Fewer Conditions

Pressure 29.99 in
Visibility 10.0 miles
Clouds Few 11000 ft
Few 25000 ft
Dew Point 48 °F
Humidity 72%
Rainfall 0.00 in
Snow Depth Not available.
UV 0.0 out of 12
Pollen 9.90 out of 12
Ozone Good
PM2.5 Good
Flu Activity Not available.
METAR KAPA 020453Z 15003KT 10SM FEW110 FEW250 16/08 A3015 RMK AO2 SLP153 T01610083 $

More Conditions Fewer Conditions

10-Day Weather Forecast

Almanac

Astronomy

Sep. 01, 2014 Rise Set
Actual Time 6:28 AM MDT 7:30 PM MDT
Civil Twilight 6:00 AM MDT 7:58 PM MDT
Nautical Twilight 5:27 AM MDT 8:31 PM MDT
Astronomical Twilight 4:53 AM MDT 9:05 PM MDT
Moon 1:14 PM MDT (9/1) 11:35 PM MDT (9/1)
Length of Visible Light 13h 57m
Length of Day
13h 02m
Tomorrow will be 2m 30s shorter.
Waxing Crescent, 48% of the Moon is Illuminated
Sep 2
Waxing Crescent
Sep 2
First Quarter
Sep 8
Full
Sep 15
Last Quarter
Sep 24
New

Yesterday's Extremes

State Highs State Lows

Community

WunderPhotos

Upload Photos

1,749,575 photos uploaded!

WunderBlogs® & News

Nearby

Air Quality

  Air Quality AQ Index Pollutant
Yesterday Good
OZONE
Yesterday Good
PM10
Current Good
PM2.5
Current Good
OZONE
Monday Good
OZONE
Monday Good
PM2.5
Tuesday Moderate
OZONE
Tuesday Good
PM2.5

Snow Depth

Station Depth Elevation
Echo Lake 0 in 10600 ft
Niwot 0 in 9910 ft
University Camp 0 in 10300 ft
Jackwhacker Gulch 0 in 10960 ft
Berthoud Summit 0 in 11300 ft

Earthquake Activity

City Distance Mag. Time & Date
No recent earthquake activity has been reported nearby.
Minimum magnitude displayed is 2.5.

Coastal Water Temperatures

Place Temperature
No Stations Reporting

Nearby Weather Stations